Time;durP1;ratioP1;P1;durP2;ratioP2;P2;SDS_P1;SDS_P2;PMS_P1;PMS_P2;Temp;Humidity;BMP_temperature;BMP_pressure;BME280_temperature;BME280_humidity;BME280_pressure;Samples;Min_cycle;Max_cycle;Signal;HPM_P1;HPM_P2
2023/02/28 00:00:10;;;;;;;12.02;7.82;;;;;;;-2.77;58.00;96458.34;4962124;28;20092;-71
2023/02/28 00:02:39;;;;;;;14.57;8.45;;;;;;;-2.67;57.67;96449.16;4959217;28;20097;-70
2023/02/28 00:05:05;;;;;;;15.85;9.10;;;;;;;-2.72;57.72;96447.69;4960458;28;20185;-70
2023/02/28 00:07:31;;;;;;;13.50;7.57;;;;;;;-2.82;57.08;96450.72;4960214;28;20141;-71
2023/02/28 00:09:57;;;;;;;15.07;8.88;;;;;;;-2.85;59.13;96450.88;4958063;28;20476;-70
2023/02/28 00:12:22;;;;;;;16.65;9.52;;;;;;;-2.78;58.72;96447.06;4956950;28;20099;-70
2023/02/28 00:14:48;;;;;;;14.77;8.98;;;;;;;-2.77;59.08;96446.16;4960481;28;20106;-71
2023/02/28 00:17:13;;;;;;;14.27;7.95;;;;;;;-2.90;56.97;96443.28;4965116;28;20103;-71
2023/02/28 00:19:39;;;;;;;13.85;8.07;;;;;;;-2.89;58.44;96439.75;4957903;28;20093;-70
2023/02/28 00:22:04;;;;;;;13.13;7.22;;;;;;;-2.98;57.05;96439.34;4957663;28;20138;-70
2023/02/28 00:24:30;;;;;;;12.23;6.35;;;;;;;-3.07;55.20;96440.63;4959521;28;20544;-70
2023/02/28 00:26:55;;;;;;;15.35;8.30;;;;;;;-2.89;58.93;96438.91;4957589;28;20104;-70
2023/02/28 00:29:20;;;;;;;13.68;8.45;;;;;;;-2.92;59.31;96446.91;4959906;28;20097;-70
2023/02/28 00:31:46;;;;;;;14.35;8.35;;;;;;;-2.89;59.30;96441.50;4959895;28;20081;-71
2023/02/28 00:34:11;;;;;;;13.35;8.13;;;;;;;-2.86;58.61;96440.53;4958354;28;20185;-70
2023/02/28 00:36:37;;;;;;;14.23;8.60;;;;;;;-2.92;59.54;96439.06;4957674;28;20098;-70
2023/02/28 00:39:03;;;;;;;12.38;7.75;;;;;;;-2.92;59.36;96439.06;4959735;28;20332;-71
2023/02/28 00:41:29;;;;;;;15.93;9.07;;;;;;;-2.87;59.26;96437.09;4957117;28;20108;-70
2023/02/28 00:43:54;;;;;;;14.25;8.35;;;;;;;-2.85;59.96;96439.63;4959835;28;20071;-70
2023/02/28 00:46:19;;;;;;;13.05;8.60;;;;;;;-2.85;59.90;96437.84;4958389;28;20091;-71
2023/02/28 00:48:45;;;;;;;13.63;7.85;;;;;;;-2.90;59.97;96442.44;4959382;28;20070;-70
2023/02/28 00:51:10;;;;;;;12.88;7.80;;;;;;;-2.85;60.06;96439.63;4959877;28;20090;-70
2023/02/28 00:53:36;;;;;;;12.80;7.60;;;;;;;-2.93;59.60;96447.78;4958560;28;20095;-70
2023/02/28 00:56:01;;;;;;;13.02;7.72;;;;;;;-2.85;59.92;96439.63;4956357;28;20083;-70
2023/02/28 00:58:26;;;;;;;13.93;8.75;;;;;;;-2.85;60.07;96443.03;4959179;28;20133;-71
2023/02/28 01:00:52;;;;;;;12.23;6.90;;;;;;;-2.85;58.42;96444.81;4959172;28;20404;-70
2023/02/28 01:03:18;;;;;;;12.10;6.78;;;;;;;-2.89;58.78;96441.50;4959868;28;20567;-70
2023/02/28 01:05:44;;;;;;;11.18;7.45;;;;;;;-2.88;59.58;96441.44;4959059;28;20576;-70
2023/02/28 01:08:09;;;;;;;13.50;7.50;;;;;;;-2.89;60.01;96439.75;4958010;28;20156;-70
2023/02/28 01:10:36;;;;;;;11.48;6.95;;;;;;;-2.94;60.37;96439.16;4958692;28;20205;-70
2023/02/28 01:13:01;;;;;;;12.48;7.35;;;;;;;-2.89;60.27;96437.16;4956471;28;20651;-70
2023/02/28 01:15:27;;;;;;;10.55;6.43;;;;;;;-2.87;59.87;96439.69;4958610;28;20085;-71
2023/02/28 01:17:52;;;;;;;11.73;7.32;;;;;;;-2.80;59.88;96442.84;4959080;28;20164;-71
2023/02/28 01:20:18;;;;;;;11.75;7.60;;;;;;;-2.77;59.97;96440.94;4959656;28;20077;-71
2023/02/28 01:22:43;;;;;;;10.95;6.20;;;;;;;-2.75;59.33;96438.25;4956778;28;20231;-70
2023/02/28 01:25:09;;;;;;;12.63;7.60;;;;;;;-2.72;59.81;96434.66;4959131;28;20090;-70
2023/02/28 01:27:35;;;;;;;11.73;6.90;;;;;;;-2.67;60.02;96438.72;4957526;28;20075;-70
2023/02/28 01:30:03;;;;;;;10.50;7.18;;;;;;;-2.56;60.10;96440.81;4957829;28;20320;-71
2023/02/28 01:32:28;;;;;;;12.38;7.18;;;;;;;-2.41;60.35;96443.59;4957219;28;20451;-71
2023/02/28 01:34:54;;;;;;;10.07;6.70;;;;;;;-2.31;59.75;96444.78;4956671;28;20122;-71
2023/02/28 01:37:19;;;;;;;11.63;7.32;;;;;;;-2.14;59.58;96445.72;4957394;28;20123;-70
2023/02/28 01:39:45;;;;;;;10.30;6.43;;;;;;;-2.02;59.48;96437.25;4959336;28;20424;-71
2023/02/28 01:42:10;;;;;;;9.27;5.88;;;;;;;-1.93;59.49;96435.09;4958711;28;20104;-70
2023/02/28 01:44:55;;;;;;;8.25;5.85;;;;;;;-1.91;58.47;96431.47;4951054;28;20073;-70
2023/02/28 01:47:21;;;;;;;10.25;6.20;;;;;;;-1.80;58.60;96432.69;4956757;28;20444;-70
2023/02/28 01:49:46;;;;;;;10.68;5.65;;;;;;;-1.72;58.31;96430.53;4956990;28;20131;-70
2023/02/28 01:52:17;;;;;;;9.57;6.40;;;;;;;-1.65;57.78;96428.41;4957434;28;20340;-70
2023/02/28 01:54:43;;;;;;;11.18;5.80;;;;;;;-1.67;57.68;96419.84;4958224;28;20094;-70
2023/02/28 01:57:10;;;;;;;9.25;5.35;;;;;;;-1.68;56.96;96429.44;4932833;28;20644;-70
2023/02/28 01:59:48;;;;;;;7.78;5.30;;;;;;;-1.68;56.61;96421.59;4957469;28;20092;-70
2023/02/28 02:02:14;;;;;;;9.07;5.43;;;;;;;-1.73;57.03;96421.84;4953553;28;20195;-71
2023/02/28 02:04:42;;;;;;;9.75;6.13;;;;;;;-1.72;56.93;96420.06;4957580;28;20718;-70
2023/02/28 02:07:07;;;;;;;9.30;5.13;;;;;;;-1.82;57.40;96418.88;4938533;28;20621;-70
2023/02/28 02:09:33;;;;;;;8.77;5.40;;;;;;;-1.90;56.92;96421.91;4957022;28;20093;-71
2023/02/28 02:11:58;;;;;;;7.90;5.43;;;;;;;-1.99;57.56;96412.75;4956875;28;20077;-71
2023/02/28 02:14:27;;;;;;;8.95;5.35;;;;;;;-2.12;57.35;96416.00;4956298;28;20100;-71
2023/02/28 02:17:07;;;;;;;8.33;5.07;;;;;;;-2.15;56.15;96410.09;4957073;28;20075;-70
2023/02/28 02:20:29;;;;;;;6.90;4.35;;;;;;;-2.41;55.19;96397.47;4955481;28;20085;-71
2023/02/28 02:23:54;;;;;;;7.47;4.65;;;;;;;-2.43;56.85;96398.47;4933100;29;20115;-70
2023/02/28 02:26:40;;;;;;;7.82;5.18;;;;;;;-2.36;58.52;96405.06;4837856;29;20244;-71
2023/02/28 02:29:43;;;;;;;7.30;4.40;;;;;;;-2.49;58.06;96399.59;4879708;29;20204;-70
2023/02/28 02:32:42;;;;;;;7.35;4.40;;;;;;;-2.53;58.53;96398.94;4951584;28;20092;-70
2023/02/28 02:35:29;;;;;;;7.53;4.50;;;;;;;-2.75;57.83;96404.38;4957493;28;20404;-71
2023/02/28 02:38:37;;;;;;;6.30;4.18;;;;;;;-2.78;58.25;96399.31;4952826;28;20220;-70
2023/02/28 02:41:27;;;;;;;6.15;4.38;;;;;;;-2.73;58.60;96399.91;4916811;28;20191;-70
2023/02/28 02:44:12;;;;;;;7.68;4.93;;;;;;;-2.76;58.16;96400.91;4941818;28;20177;-70
2023/02/28 02:46:44;;;;;;;7.55;4.88;;;;;;;-2.85;59.17;96398.72;4942203;28;20181;-70
2023/02/28 02:49:13;;;;;;;7.65;4.80;;;;;;;-2.89;58.74;96400.66;4924861;29;20095;-71
2023/02/28 02:51:38;;;;;;;9.48;5.07;;;;;;;-2.85;59.41;96396.13;4940960;29;20073;-70
2023/02/28 02:54:10;;;;;;;7.45;4.90;;;;;;;-2.86;59.00;96401.44;4942362;28;20591;-70
2023/02/28 02:56:36;;;;;;;8.25;4.90;;;;;;;-2.88;58.55;96401.50;4939305;29;20481;-70
2023/02/28 02:59:07;;;;;;;7.50;4.97;;;;;;;-2.94;58.79;96399.19;4924670;28;20164;-71
2023/02/28 03:01:33;;;;;;;7.18;4.50;;;;;;;-2.94;59.64;96409.63;4923748;29;20097;-70
2023/02/28 03:04:13;;;;;;;6.35;4.47;;;;;;;-3.04;59.30;96410.06;4940878;29;20081;-70
2023/02/28 03:06:38;;;;;;;7.85;4.40;;;;;;;-3.07;59.15;96409.34;4948151;28;20593;-70
2023/02/28 03:09:07;;;;;;;6.57;4.57;;;;;;;-3.08;59.93;96412.88;4942388;28;20110;-71
2023/02/28 03:11:32;;;;;;;7.55;4.80;;;;;;;-3.12;59.81;96411.34;4941675;29;20078;-70
2023/02/28 03:14:32;;;;;;;7.80;4.88;;;;;;;-3.18;59.40;96410.72;4941756;28;20133;-70
2023/02/28 03:17:06;;;;;;;7.63;4.63;;;;;;;-3.15;59.92;96412.34;4940242;28;20578;-70
2023/02/28 03:19:40;;;;;;;7.53;4.82;;;;;;;-3.19;60.61;96408.19;4940443;29;20594;-70
2023/02/28 03:22:19;;;;;;;7.60;4.47;;;;;;;-3.32;58.35;96406.16;4938274;28;20105;-70
2023/02/28 03:24:59;;;;;;;6.30;4.25;;;;;;;-3.35;60.69;96401.09;4938585;28;20342;-70
2023/02/28 03:27:29;;;;;;;7.80;4.30;;;;;;;-3.36;59.16;96406.38;4938803;28;20601;-70
2023/02/28 03:30:35;;;;;;;7.57;4.45;;;;;;;-3.44;60.92;96411.94;4938353;29;20315;-70
2023/02/28 03:33:04;;;;;;;7.57;4.75;;;;;;;-3.45;60.71;96410.25;4937983;28;20094;-70
2023/02/28 03:35:38;;;;;;;7.45;4.20;;;;;;;-3.48;60.90;96405.16;4938696;29;20072;-70
2023/02/28 03:38:36;;;;;;;7.25;4.55;;;;;;;-3.47;61.27;96412.09;4924408;28;20093;-71
2023/02/28 03:41:13;;;;;;;6.10;4.20;;;;;;;-3.48;60.83;96402.56;4936568;28;20114;-70
2023/02/28 03:43:41;;;;;;;6.35;4.38;;;;;;;-3.48;61.52;96405.16;4937581;29;20335;-70
2023/02/28 03:46:10;;;;;;;6.07;3.97;;;;;;;-3.57;61.22;96404.69;4925332;28;20206;-70
2023/02/28 03:48:40;;;;;;;5.22;3.70;;;;;;;-3.60;56.20;96402.22;4938449;29;20606;-70
2023/02/28 03:51:06;;;;;;;5.50;3.78;;;;;;;-3.57;61.64;96402.09;4932751;28;20534;-71
2023/02/28 03:53:39;;;;;;;6.07;3.97;;;;;;;-3.56;60.76;96398.56;4937401;29;20105;-70
2023/02/28 03:56:33;;;;;;;8.40;3.90;;;;;;;-3.64;57.40;96397.25;4920581;29;20072;-70
2023/02/28 03:59:02;;;;;;;7.30;4.20;;;;;;;-3.60;61.04;96399.63;4937015;29;20105;-70
2023/02/28 04:01:41;;;;;;;5.65;3.80;;;;;;;-3.59;61.55;96400.47;4921753;28;20107;-70
2023/02/28 04:04:07;;;;;;;4.68;3.47;;;;;;;-3.63;60.22;96407.59;4924614;29;20074;-70
2023/02/28 04:06:32;;;;;;;4.78;3.13;;;;;;;-3.69;58.14;96395.69;4940702;28;20136;-71
2023/02/28 04:08:58;;;;;;;6.90;3.67;;;;;;;-3.64;61.84;96403.28;4943015;28;20072;-70
2023/02/28 04:11:23;;;;;;;4.22;3.33;;;;;;;-3.65;60.75;96399.00;4940552;29;20560;-71
2023/02/28 04:13:48;;;;;;;5.22;3.50;;;;;;;-3.67;60.72;96400.84;4938424;28;20107;-70
2023/02/28 04:16:14;;;;;;;6.78;3.80;;;;;;;-3.66;61.84;96405.13;4941660;28;20080;-70
2023/02/28 04:18:39;;;;;;;5.72;3.80;;;;;;;-3.67;61.32;96400.84;4940210;28;20140;-70
2023/02/28 04:21:06;;;;;;;4.97;3.38;;;;;;;-3.63;61.76;96404.13;4938940;29;20109;-70
2023/02/28 04:23:32;;;;;;;4.78;3.40;;;;;;;-3.68;61.75;96406.94;4940439;28;20612;-71
2023/02/28 04:25:57;;;;;;;5.70;3.75;;;;;;;-3.71;60.72;96400.09;4939265;29;20106;-70
2023/02/28 04:28:22;;;;;;;5.20;3.50;;;;;;;-3.78;60.81;96399.56;4941384;29;20174;-71
2023/02/28 04:30:54;;;;;;;5.85;3.50;;;;;;;-3.81;61.43;96407.50;4941026;28;20111;-71
2023/02/28 04:33:20;;;;;;;7.55;3.78;;;;;;;-3.80;61.77;96403.97;4940860;28;20526;-70
2023/02/28 04:35:45;;;;;;;5.45;3.63;;;;;;;-3.82;61.51;96410.16;4938674;29;20086;-71
2023/02/28 04:38:10;;;;;;;6.55;3.50;;;;;;;-3.84;61.48;96405.03;4939120;28;20101;-70
2023/02/28 04:40:36;;;;;;;5.15;3.22;;;;;;;-3.87;61.79;96399.13;4940986;28;20588;-71
2023/02/28 04:43:01;;;;;;;5.05;3.42;;;;;;;-3.84;60.42;96409.41;4940843;28;20117;-70
2023/02/28 04:45:29;;;;;;;6.80;3.55;;;;;;;-3.92;61.24;96407.13;4940870;28;20093;-70
2023/02/28 04:47:55;;;;;;;5.78;3.70;;;;;;;-3.94;61.21;96409.78;4940718;29;20578;-71
2023/02/28 04:50:20;;;;;;;6.47;3.45;;;;;;;-3.92;61.60;96412.31;4939698;28;20103;-70
2023/02/28 04:52:46;;;;;;;5.78;3.67;;;;;;;-3.95;61.29;96413.31;4940405;28;20066;-70
2023/02/28 04:55:11;;;;;;;5.45;3.50;;;;;;;-3.94;62.13;96414.16;4940893;29;20030;-70
2023/02/28 04:57:37;;;;;;;5.43;3.30;;;;;;;-4.05;58.32;96415.47;4940880;28;20403;-70
2023/02/28 05:00:05;;;;;;;5.80;3.60;;;;;;;-4.04;61.93;96411.13;4940831;28;20027;-70
2023/02/28 05:02:33;;;;;;;4.97;3.30;;;;;;;-4.07;61.97;96414.69;4938911;28;20120;-70
2023/02/28 05:04:59;;;;;;;5.32;3.30;;;;;;;-4.06;62.03;96408.59;4938922;28;20039;-70
2023/02/28 05:07:24;;;;;;;4.00;3.33;;;;;;;-4.07;62.20;96408.66;4940648;28;20045;-70
2023/02/28 05:09:49;;;;;;;5.38;3.05;;;;;;;-4.11;62.34;96409.69;4940396;28;20077;-70
2023/02/28 05:12:15;;;;;;;4.82;3.33;;;;;;;-4.10;62.29;96408.78;4939050;28;20058;-70
2023/02/28 05:14:41;;;;;;;5.20;3.38;;;;;;;-4.10;62.59;96409.63;4940263;28;20078;-71
2023/02/28 05:17:07;;;;;;;5.85;3.30;;;;;;;-4.14;61.86;96415.88;4938691;28;20532;-70
2023/02/28 05:19:33;;;;;;;5.53;3.40;;;;;;;-4.22;61.89;96411.00;4939064;29;20128;-70
2023/02/28 05:21:58;;;;;;;4.35;3.08;;;;;;;-4.18;62.14;96411.69;4939567;28;20082;-70
2023/02/28 05:24:24;;;;;;;4.70;3.13;;;;;;;-4.17;61.71;96406.44;4939438;29;20056;-70
2023/02/28 05:26:51;;;;;;;5.88;3.45;;;;;;;-4.30;62.10;96411.34;4939851;28;20069;-70
2023/02/28 05:29:17;;;;;;;5.05;3.10;;;;;;;-4.22;62.16;96410.13;4940351;28;20590;-70
2023/02/28 05:31:42;;;;;;;5.18;3.22;;;;;;;-4.22;61.33;96415.34;4939897;29;20431;-70
2023/02/28 05:34:07;;;;;;;4.38;3.30;;;;;;;-4.28;61.51;96415.63;4939209;28;20542;-71
2023/02/28 05:36:33;;;;;;;5.63;3.47;;;;;;;-4.29;61.59;96419.97;4940321;29;20043;-71
2023/02/28 05:38:58;;;;;;;6.63;3.90;;;;;;;-4.35;57.11;96415.88;4939718;28;20054;-70
2023/02/28 05:41:24;;;;;;;5.68;3.20;;;;;;;-4.40;61.58;96427.38;4939706;28;20090;-70
2023/02/28 05:43:49;;;;;;;4.70;3.13;;;;;;;-4.38;62.34;96428.19;4940122;28;20046;-71
2023/02/28 05:46:15;;;;;;;3.95;3.00;;;;;;;-4.38;61.87;96426.41;4939577;28;20761;-70
2023/02/28 05:48:41;;;;;;;5.07;3.10;;;;;;;-4.37;61.33;96417.72;4939308;28;20460;-70
2023/02/28 05:51:07;;;;;;;4.40;3.08;;;;;;;-4.37;61.99;96427.25;4939651;28;20129;-70
2023/02/28 05:53:33;;;;;;;5.00;3.15;;;;;;;-4.48;60.47;96428.53;4938162;28;20047;-70
2023/02/28 05:55:58;;;;;;;5.28;3.60;;;;;;;-4.46;61.54;96425.88;4939969;28;20090;-70
2023/02/28 05:58:28;;;;;;;4.00;2.97;;;;;;;-4.60;62.20;96427.31;4939711;28;20047;-70
2023/02/28 06:00:54;;;;;;;4.30;3.00;;;;;;;-4.39;62.63;96429.09;4942196;28;20498;-70
2023/02/28 06:03:19;;;;;;;5.32;3.00;;;;;;;-4.38;62.53;96426.41;4946256;28;20050;-70
2023/02/28 06:05:45;;;;;;;4.60;3.05;;;;;;;-4.40;63.06;96430.84;4945380;28;20070;-70
2023/02/28 06:08:10;;;;;;;4.22;3.20;;;;;;;-4.39;62.36;96424.72;4946388;28;20192;-70
2023/02/28 06:10:35;;;;;;;4.28;2.80;;;;;;;-4.36;61.53;96427.19;4945137;28;20035;-70
2023/02/28 06:13:04;;;;;;;4.38;2.88;;;;;;;-4.49;62.25;96432.06;4943979;28;20503;-70
2023/02/28 06:15:30;;;;;;;4.37;2.90;;;;;;;-4.45;62.77;96430.19;4944953;28;20572;-70
2023/02/28 06:17:58;;;;;;;4.25;2.95;;;;;;;-4.36;62.19;96435.00;4945729;28;20293;-70
2023/02/28 06:20:24;;;;;;;4.78;3.10;;;;;;;-4.38;61.94;96434.19;4945198;28;20681;-70
2023/02/28 06:22:51;;;;;;;3.83;2.72;;;;;;;-4.33;60.51;96441.81;4945935;28;20561;-70
2023/02/28 06:25:16;;;;;;;4.45;2.75;;;;;;;-4.53;61.68;96433.09;4945134;28;20031;-70
2023/02/28 06:27:42;;;;;;;4.05;2.80;;;;;;;-4.38;60.62;96439.41;4945471;28;20063;-70
2023/02/28 06:30:10;;;;;;;5.78;3.65;;;;;;;-4.29;61.44;96438.16;4944216;28;20043;-70
2023/02/28 06:32:36;;;;;;;4.18;3.15;;;;;;;-4.43;61.01;96443.97;4945820;28;20047;-70
2023/02/28 06:35:01;;;;;;;4.35;3.22;;;;;;;-4.32;61.19;96444.34;4943859;28;20050;-70
2023/02/28 06:37:27;;;;;;;4.70;3.42;;;;;;;-4.27;60.97;96440.72;4944314;28;20069;-70
2023/02/28 06:39:53;;;;;;;5.78;3.10;;;;;;;-4.31;59.76;96446.03;4943987;28;20046;-70
2023/02/28 06:42:19;;;;;;;7.70;3.58;;;;;;;-4.40;60.25;96454.22;4943652;28;20050;-70
2023/02/28 06:44:45;;;;;;;5.72;3.60;;;;;;;-4.32;59.14;96449.56;4945145;28;20073;-70
2023/02/28 06:47:10;;;;;;;6.50;3.50;;;;;;;-4.25;61.20;96457.09;4945863;28;20027;-70
2023/02/28 06:49:36;;;;;;;10.52;4.40;;;;;;;-4.21;60.76;96453.47;4943934;28;20500;-70
2023/02/28 06:52:01;;;;;;;6.97;3.53;;;;;;;-4.10;60.59;96447.81;4944618;28;20027;-70
2023/02/28 06:54:27;;;;;;;4.25;2.90;;;;;;;-3.81;61.24;96454.34;4945620;28;20054;-71
2023/02/28 06:56:54;;;;;;;5.95;3.10;;;;;;;-3.79;61.06;96457.72;4945680;28;20050;-70
2023/02/28 06:59:19;;;;;;;4.32;2.92;;;;;;;-3.55;61.03;96460.16;4945834;28;20027;-71
2023/02/28 07:01:45;;;;;;;5.30;2.70;;;;;;;-3.39;59.81;96459.47;4945455;28;20039;-70
2023/02/28 07:04:10;;;;;;;4.20;2.60;;;;;;;-3.30;59.04;96458.16;4945901;28;20039;-70
2023/02/28 07:06:35;;;;;;;4.05;2.70;;;;;;;-2.98;60.60;96455.00;4945853;28;20039;-71
2023/02/28 07:09:03;;;;;;;4.78;3.03;;;;;;;-2.92;59.09;96454.72;4945794;28;20082;-71
2023/02/28 07:11:29;;;;;;;2.47;2.28;;;;;;;-2.89;58.66;96459.75;4943433;28;20195;-71
2023/02/28 07:13:54;;;;;;;7.95;2.83;;;;;;;-2.61;56.26;96461.06;4941888;28;20047;-70
2023/02/28 07:16:20;;;;;;;4.57;2.85;;;;;;;-2.48;56.09;96452.63;4942171;29;20039;-71
2023/02/28 07:18:45;;;;;;;3.53;2.60;;;;;;;-2.55;54.13;96463.34;4941925;28;20176;-71
2023/02/28 07:21:11;;;;;;;3.38;2.70;;;;;;;-2.41;53.75;96464.44;4941451;28;20630;-70
2023/02/28 07:23:37;;;;;;;3.90;2.50;;;;;;;-2.40;50.66;96460.91;4941518;28;20393;-71
2023/02/28 07:26:03;;;;;;;3.35;2.55;;;;;;;-2.16;55.14;96466.69;4941425;28;20047;-71
2023/02/28 07:28:29;;;;;;;4.00;2.45;;;;;;;-1.97;55.24;96463.09;4941531;29;20240;-71
2023/02/28 07:30:54;;;;;;;2.75;2.45;;;;;;;-2.33;47.89;96464.91;4941479;28;20035;-70
2023/02/28 07:33:20;;;;;;;3.92;2.80;;;;;;;-2.24;53.13;96466.22;4939614;28;20054;-70
2023/02/28 07:35:45;;;;;;;4.88;2.58;;;;;;;-2.03;45.75;96463.44;4941680;28;20324;-71
2023/02/28 07:38:11;;;;;;;2.33;2.10;;;;;;;-2.31;46.42;96476.09;4941606;28;20047;-71
2023/02/28 07:40:36;;;;;;;3.70;2.45;;;;;;;-2.46;51.21;96466.41;4941974;28;20082;-71
2023/02/28 07:43:03;;;;;;;3.25;2.50;;;;;;;-2.31;47.98;96470.06;4941607;28;20042;-71
2023/02/28 07:45:28;;;;;;;4.88;2.50;;;;;;;-2.46;49.71;96464.66;4940461;28;20376;-70
2023/02/28 07:47:54;;;;;;;6.13;2.70;;;;;;;-2.38;41.95;96464.28;4940846;29;20039;-71
2023/02/28 07:50:19;;;;;;;3.10;2.50;;;;;;;-1.93;45.00;96458.59;4941251;28;20039;-70
2023/02/28 07:52:45;;;;;;;3.67;2.70;;;;;;;-1.86;40.24;96463.41;4940598;28;20037;-70
2023/02/28 07:55:10;;;;;;;4.15;2.78;;;;;;;-1.74;39.54;96454.09;4941995;28;20794;-70
2023/02/28 07:57:35;;;;;;;3.75;2.70;;;;;;;-1.77;40.98;96462.09;4941498;28;20400;-70
2023/02/28 08:00:05;;;;;;;3.13;2.50;;;;;;;-1.52;39.14;96450.34;4939517;28;20129;-71
2023/02/28 08:02:30;;;;;;;4.25;2.70;;;;;;;-1.63;39.64;96457.94;4941765;28;20096;-70
2023/02/28 08:04:56;;;;;;;3.28;2.42;;;;;;;-1.45;37.21;96461.31;4940398;28;20090;-71
2023/02/28 08:07:21;;;;;;;4.47;2.80;;;;;;;-1.71;38.57;96463.53;4937869;29;20076;-70
2023/02/28 08:09:47;;;;;;;5.93;3.65;;;;;;;-1.90;38.36;96463.66;4936370;28;20616;-70
2023/02/28 08:12:12;;;;;;;6.25;3.70;;;;;;;-1.66;39.24;96463.31;4940779;29;20557;-70
2023/02/28 08:14:37;;;;;;;4.55;2.65;;;;;;;-1.48;38.59;96462.34;4940089;28;20106;-70
2023/02/28 08:17:03;;;;;;;4.47;2.50;;;;;;;-1.58;37.61;96453.28;4939147;28;20109;-70
2023/02/28 08:19:29;;;;;;;7.60;4.13;;;;;;;-1.63;39.85;96457.94;4938399;28;20112;-70
2023/02/28 08:21:55;;;;;;;4.82;3.15;;;;;;;-1.57;37.73;96461.97;4940614;28;20113;-70
2023/02/28 08:24:20;;;;;;;4.70;2.92;;;;;;;-1.54;36.63;96462.66;4939503;28;20221;-70
2023/02/28 08:26:46;;;;;;;5.32;3.00;;;;;;;-1.60;37.68;96461.22;4939228;28;20105;-70
2023/02/28 08:29:11;;;;;;;4.65;3.15;;;;;;;-1.68;37.30;96455.53;4937299;28;20578;-70
2023/02/28 08:31:36;;;;;;;4.30;2.15;;;;;;;-1.58;35.97;96453.28;4939872;28;20224;-70
2023/02/28 08:34:06;;;;;;;3.83;2.22;;;;;;;-1.64;36.84;96458.81;4938311;28;20156;-70
2023/02/28 08:36:32;;;;;;;3.33;2.50;;;;;;;-1.60;35.24;96470.78;4936625;28;20441;-70
2023/02/28 08:38:59;;;;;;;6.50;3.30;;;;;;;-1.41;34.96;96459.38;4939173;28;20101;-70
2023/02/28 08:41:24;;;;;;;6.32;3.55;;;;;;;-1.20;35.23;96462.59;4937427;28;20147;-70
2023/02/28 08:43:50;;;;;;;5.85;3.00;;;;;;;-1.06;33.52;96459.25;4939088;28;20372;-69
2023/02/28 08:46:15;;;;;;;3.85;2.97;;;;;;;-1.28;35.15;96467.41;4940515;28;20095;-70
2023/02/28 08:48:43;;;;;;;8.52;3.30;;;;;;;-1.09;32.90;96470.72;4940525;28;20134;-70
2023/02/28 08:51:11;;;;;;;3.70;2.83;;;;;;;-1.00;36.57;96460.66;4939429;28;20111;-70
2023/02/28 08:53:37;;;;;;;3.10;2.20;;;;;;;-0.89;32.77;96462.72;4940427;28;20101;-69
2023/02/28 08:56:07;;;;;;;7.10;4.63;;;;;;;-0.77;33.81;96464.66;4937556;29;20075;-70
2023/02/28 08:58:34;;;;;;;4.53;3.00;;;;;;;-0.45;31.77;96456.75;4938690;28;20591;-70
2023/02/28 09:00:59;;;;;;;5.32;2.85;;;;;;;-0.54;31.48;96459.06;4938097;28;20084;-70
2023/02/28 09:03:26;;;;;;;5.60;3.67;;;;;;;-0.61;34.07;96467.25;4938681;28;20094;-70
2023/02/28 09:05:59;;;;;;;10.80;6.20;;;;;;;-0.22;32.42;96456.34;4939318;28;20455;-70
2023/02/28 09:08:25;;;;;;;5.25;2.20;;;;;;;-0.55;31.13;96455.59;4937089;28;20077;-70
2023/02/28 09:10:51;;;;;;;3.75;2.80;;;;;;;-0.28;31.06;96462.78;4938307;28;20480;-70
2023/02/28 09:13:19;;;;;;;5.38;3.40;;;;;;;-0.37;31.78;96453.69;4939299;28;20574;-70
2023/02/28 09:15:45;;;;;;;6.63;3.92;;;;;;;-0.24;31.77;96458.22;4940091;28;20072;-70
2023/02/28 09:18:11;;;;;;;6.90;4.28;;;;;;;-0.15;31.24;96456.84;4939062;28;20479;-70
2023/02/28 09:20:42;;;;;;;6.05;3.92;;;;;;;0.03;32.21;96453.13;4938023;29;20156;-70
2023/02/28 09:23:08;;;;;;;6.80;3.90;;;;;;;-0.11;29.90;96456.56;4936136;28;20100;-70
2023/02/28 09:25:34;;;;;;;5.43;3.28;;;;;;;0.41;30.24;96459.63;4937010;28;20137;-70
2023/02/28 09:28:00;;;;;;;3.10;2.17;;;;;;;0.50;28.40;96459.97;4937035;28;20080;-70
2023/02/28 09:30:26;;;;;;;6.22;2.85;;;;;;;0.20;29.60;96462.59;4938874;28;20582;-70
2023/02/28 09:32:53;;;;;;;13.70;7.47;;;;;;;-0.07;31.20;96463.31;4937625;28;20093;-69
2023/02/28 09:35:20;;;;;;;9.35;5.05;;;;;;;-0.08;30.72;96473.88;4939347;28;20549;-70
2023/02/28 09:37:47;;;;;;;9.43;3.95;;;;;;;0.42;30.21;96463.94;4937012;28;20097;-70
2023/02/28 09:40:12;;;;;;;7.82;3.90;;;;;;;0.82;28.80;96470.28;4937381;28;20083;-70
2023/02/28 09:42:38;;;;;;;13.02;6.25;;;;;;;0.60;31.31;96474.22;4934244;29;20090;-70
2023/02/28 09:45:13;;;;;;;5.47;2.88;;;;;;;0.59;28.93;96456.81;4921900;28;20094;-70
2023/02/28 09:47:44;;;;;;;11.93;7.32;;;;;;;0.47;29.33;96466.25;4930621;28;20101;-70
2023/02/28 09:50:41;;;;;;;3.85;2.50;;;;;;;0.58;29.54;96466.44;4936803;29;20183;-71
2023/02/28 09:53:28;;;;;;;5.13;3.30;;;;;;;0.93;28.81;96469.59;4943048;28;20164;-70
2023/02/28 09:55:56;;;;;;;5.38;3.60;;;;;;;1.10;29.01;96469.38;4921853;28;20531;-70
2023/02/28 09:58:40;;;;;;;5.33;3.50;;;;;;;1.33;27.77;96463.59;4937521;29;20662;-70
2023/02/28 10:01:48;;;;;;;5.22;2.95;;;;;;;1.18;27.08;96470.66;4937465;28;20176;-70
2023/02/28 10:04:44;;;;;;;9.52;4.72;;;;;;;0.83;27.89;96471.97;4920466;28;20073;-71
2023/02/28 10:07:40;;;;;;;5.57;3.58;;;;;;;1.09;27.82;96478.19;4938341;29;20611;-70
2023/02/28 10:10:24;;;;;;;4.18;3.05;;;;;;;1.37;27.53;96476.41;4916821;28;20641;-71
2023/02/28 10:12:50;;;;;;;7.35;4.60;;;;;;;1.36;28.15;96468.63;4950656;28;20071;-70
2023/02/28 10:15:16;;;;;;;10.27;5.97;;;;;;;1.52;26.51;96479.00;4920975;29;20117;-70
2023/02/28 10:17:44;;;;;;;15.88;10.45;;;;;;;1.94;28.05;96471.03;4937833;28;20147;-71
2023/02/28 10:20:19;;;;;;;15.93;8.73;;;;;;;1.96;27.78;96468.31;4928689;28;20071;-70
2023/02/28 10:22:58;;;;;;;11.80;6.90;;;;;;;2.07;27.74;96470.19;4919831;29;20114;-71
2023/02/28 10:25:26;;;;;;;4.18;2.70;;;;;;;2.46;26.11;96465.84;4920475;28;20528;-71
2023/02/28 10:27:53;;;;;;;5.85;2.90;;;;;;;2.64;26.08;96460.22;4955297;28;20554;-71
2023/02/28 10:30:19;;;;;;;4.38;3.13;;;;;;;2.38;25.71;96466.34;4956407;28;20087;-71
2023/02/28 10:32:54;;;;;;;3.03;2.50;;;;;;;2.58;25.67;96464.13;4956228;28;20086;-69
2023/02/28 10:35:21;;;;;;;4.90;2.90;;;;;;;2.41;26.27;96462.66;4952054;28;20065;-71
2023/02/28 10:37:49;;;;;;;6.30;3.10;;;;;;;2.07;25.66;96465.81;4956779;28;20235;-70
2023/02/28 10:40:17;;;;;;;6.00;2.83;;;;;;;1.84;26.10;96468.19;4955354;28;20423;-71
2023/02/28 10:42:54;;;;;;;20.97;11.67;;;;;;;1.48;27.67;96472.25;4954670;28;20137;-71
2023/02/28 10:45:20;;;;;;;11.43;6.68;;;;;;;1.58;28.33;96462.03;4958078;28;20173;-70
2023/02/28 10:47:49;;;;;;;2.53;2.30;;;;;;;1.96;26.46;96466.53;4960017;28;20081;-70
2023/02/28 10:50:32;;;;;;;3.92;2.75;;;;;;;2.22;28.26;96465.72;4960032;28;20339;-71
2023/02/28 10:53:26;;;;;;;8.88;4.85;;;;;;;2.20;26.64;96464.97;4959394;28;20058;-70
2023/02/28 10:56:02;;;;;;;6.68;4.38;;;;;;;2.30;27.39;96463.41;4950884;28;20073;-70
2023/02/28 10:58:50;;;;;;;3.53;2.38;;;;;;;2.61;26.21;96471.81;4960691;28;20076;-70
2023/02/28 11:01:22;;;;;;;10.07;6.28;;;;;;;3.12;25.47;96463.91;4959103;28;20703;-70
2023/02/28 11:03:48;;;;;;;6.97;3.38;;;;;;;3.34;25.74;96463.22;4956799;28;20219;-71
2023/02/28 11:06:25;;;;;;;5.43;3.83;;;;;;;3.59;25.51;96450.06;4940057;28;20090;-70
2023/02/28 11:09:38;;;;;;;6.07;3.55;;;;;;;3.68;25.07;96454.66;4930843;28;20073;-70
2023/02/28 11:12:05;;;;;;;5.93;3.10;;;;;;;4.11;24.85;96455.03;4942025;28;20064;-70
2023/02/28 11:14:33;;;;;;;13.80;8.23;;;;;;;4.07;24.88;96462.31;4937902;28;20082;-70
2023/02/28 11:17:03;;;;;;;9.55;5.88;;;;;;;4.29;24.83;96458.06;4956697;28;20047;-70
2023/02/28 11:19:33;;;;;;;6.78;3.50;;;;;;;4.43;24.89;96462.25;4956951;28;20072;-70
2023/02/28 11:22:01;;;;;;;4.70;2.95;;;;;;;4.63;23.68;96459.88;4934189;28;20118;-70
2023/02/28 11:24:44;;;;;;;12.90;7.88;;;;;;;4.69;24.49;96459.38;4960211;28;20074;-70
2023/02/28 11:27:31;;;;;;;4.43;2.88;;;;;;;4.91;25.08;96455.06;4925238;28;20070;-70
2023/02/28 11:29:59;;;;;;;6.13;4.18;;;;;;;4.81;24.39;96462.88;4939261;28;20082;-70
2023/02/28 11:32:30;;;;;;;3.60;2.80;;;;;;;4.87;24.34;96458.91;4942286;28;20547;-70
2023/02/28 11:35:03;;;;;;;5.15;3.50;;;;;;;5.14;24.29;96458.53;4938816;28;20472;-70
2023/02/28 11:37:29;;;;;;;9.82;6.22;;;;;;;4.42;26.22;96455.31;4940490;28;20081;-71
2023/02/28 11:39:54;;;;;;;9.75;6.65;;;;;;;4.93;24.03;96459.25;4941496;29;20507;-71
2023/02/28 11:42:50;;;;;;;6.85;4.10;;;;;;;4.69;24.15;96460.22;4940177;29;20077;-71
2023/02/28 11:45:22;;;;;;;17.15;12.45;;;;;;;4.64;25.01;96465.03;4940129;29;20748;-71